logo
Search for airport 
image banner adimage banner adimage banner ad
image banner ad

EHH037 - Schalkwijk (Houten)

Located in , Netherlands

ICAO - , IATA -

Data provided by Airmate  

General information

Coordinates: N51°58'55" E5°11'6"
Elevation is feet MSL.
 
View others Airports in Gelderland

Operational data

Special qualification required
Current time UTC:
Current local time:
Weather at : EHAM - Amsterdam/Schiphol ( 46 km )
METAR: EHAM 150955Z 21017G27KT 180V240 6000 SHRA SCT018CB SCT021 BKN026 10/07 Q1003 BECMG 9999 -SHRA
TAF: TAF COR EHAM 150653Z 1506/1612 21010KT CAVOK BECMG 1507/1510 21020G32KT SCT018 BKN025 TEMPO 1509/1512 24025G38KT 4000 SHRA RA SCT015CB BKN020 TEMPO 1511/1513 29030G45KT 2000 +SHRAGS TSRAGS SCT008 BKN012 BKN015CB BECMG 1512/1514 28020G32KT SCT025 TEMPO 1515/1521 29025G40KT 4000 SHRAGS SCT018CB BKN022 BECMG 1520/1522 27020G30KT FEW040 TEMPO 1600/1612 6000 SHRA -SHRAGS SCT015CB BKN020 BECMG 1606/1609 32015G25KT
View NOTAMs / SUP AIP / TFR affecting this airport [VIEW]
Communications frequencies: [VIEW]

Runways:

Airport contact information

Address: Netherlands

Satellite view of EHH037